createdAt,value
2023-03-28T00:01:12.472Z,6.13
2023-03-28T00:03:41.546Z,6.17
2023-03-28T00:06:12.339Z,5.37
2023-03-28T00:08:41.554Z,6.43
2023-03-28T00:11:18.963Z,6.47
2023-03-28T00:13:48.345Z,7.10
2023-03-28T00:16:18.409Z,7.20
2023-03-28T00:18:47.024Z,7.00
2023-03-28T00:21:24.311Z,5.77
2023-03-28T00:23:54.360Z,9.23
2023-03-28T00:26:26.634Z,7.67
2023-03-28T00:28:55.816Z,7.60
2023-03-28T00:31:27.083Z,6.03
2023-03-28T00:33:56.267Z,8.50
2023-03-28T00:36:29.564Z,5.87
2023-03-28T00:38:59.146Z,6.87
2023-03-28T00:41:32.310Z,6.77
2023-03-28T00:44:02.615Z,7.73
2023-03-28T00:46:37.020Z,6.43
2023-03-28T00:49:10.886Z,8.53
2023-03-28T00:51:42.884Z,7.17
2023-03-28T00:54:15.707Z,6.53
2023-03-28T00:56:48.098Z,7.40
2023-03-28T00:59:20.997Z,6.17
2023-03-28T01:01:51.178Z,6.60
2023-03-28T01:04:22.272Z,6.47
2023-03-28T01:06:54.797Z,9.73
2023-03-28T01:09:24.602Z,6.17
2023-03-28T01:11:55.009Z,8.67
2023-03-28T01:14:26.454Z,5.70
2023-03-28T01:16:57.750Z,9.80
2023-03-28T01:19:42.797Z,6.70
2023-03-28T01:22:36.635Z,6.33
2023-03-28T01:25:39.637Z,9.60
2023-03-28T01:28:17.616Z,6.40
2023-03-28T01:31:04.783Z,8.73
2023-03-28T01:33:58.584Z,5.73
2023-03-28T01:37:01.579Z,6.17
2023-03-28T01:39:41.942Z,7.13
2023-03-28T01:42:19.361Z,7.73
2023-03-28T01:44:53.345Z,7.27
2023-03-28T01:47:28.455Z,7.83
2023-03-28T01:50:03.429Z,8.00
2023-03-28T01:52:38.777Z,7.03
2023-03-28T01:55:11.968Z,10.27
2023-03-28T01:57:47.255Z,8.73
2023-03-28T02:00:22.776Z,7.30
2023-03-28T02:02:55.840Z,8.53
2023-03-28T02:05:26.482Z,6.90
2023-03-28T02:07:57.004Z,9.17
2023-03-28T02:10:27.368Z,6.20
2023-03-28T02:12:59.155Z,9.50
2023-03-28T02:15:30.434Z,6.77
2023-03-28T02:18:03.134Z,7.43
2023-03-28T02:20:34.139Z,6.40
2023-03-28T02:23:09.128Z,9.10
2023-03-28T02:25:39.208Z,7.43
2023-03-28T02:28:10.196Z,8.17
2023-03-28T02:30:38.774Z,6.50
2023-03-28T02:33:10.138Z,8.63
2023-03-28T02:35:50.723Z,5.97
2023-03-28T02:38:34.998Z,8.40
2023-03-28T02:41:15.016Z,9.80
2023-03-28T02:44:01.600Z,7.13
2023-03-28T02:46:33.110Z,7.77
2023-03-28T02:49:47.293Z,7.00
2023-03-28T02:52:30.620Z,6.20
2023-03-28T02:55:08.727Z,8.57
2023-03-28T02:57:39.969Z,7.60
2023-03-28T03:00:12.056Z,7.20
2023-03-28T03:02:43.394Z,8.03
2023-03-28T03:05:13.958Z,5.87
2023-03-28T03:07:42.879Z,7.80
2023-03-28T03:10:15.077Z,7.70
2023-03-28T03:12:44.363Z,6.37
2023-03-28T03:15:17.169Z,7.77
2023-03-28T03:17:46.152Z,8.53
2023-03-28T03:20:15.299Z,7.63
2023-03-28T03:22:43.976Z,6.77
2023-03-28T03:25:14.784Z,6.67
2023-03-28T03:27:43.578Z,7.37
2023-03-28T03:30:13.682Z,5.57
2023-03-28T03:32:44.168Z,6.40
2023-03-28T03:35:13.004Z,6.33
2023-03-28T03:37:41.563Z,8.03
2023-03-28T03:40:11.305Z,5.00
2023-03-28T03:42:41.388Z,6.60
2023-03-28T03:45:11.262Z,6.10
2023-03-28T03:47:39.919Z,6.67
2023-03-28T03:50:09.533Z,8.47
2023-03-28T03:52:38.500Z,7.47
2023-03-28T03:55:07.801Z,7.90
2023-03-28T03:57:36.783Z,8.03
2023-03-28T04:00:11.943Z,9.73
2023-03-28T04:02:40.772Z,8.00
2023-03-28T04:05:09.999Z,9.30
2023-03-28T04:07:39.000Z,7.33
2023-03-28T04:10:08.536Z,9.30
2023-03-28T04:12:37.152Z,7.27
2023-03-28T04:15:08.628Z,8.37
2023-03-28T04:17:37.926Z,5.90
2023-03-28T04:20:12.885Z,8.30
2023-03-28T04:22:45.380Z,8.10
2023-03-28T04:25:15.113Z,7.20
2023-03-28T04:27:47.358Z,8.07
2023-03-28T04:30:18.001Z,5.73
2023-03-28T04:32:49.600Z,9.43
2023-03-28T04:35:18.309Z,6.37
2023-03-28T04:37:47.496Z,7.03
2023-03-28T04:40:17.907Z,7.80
2023-03-28T04:42:46.839Z,7.40
2023-03-28T04:45:17.861Z,8.17
2023-03-28T04:47:48.334Z,7.47
2023-03-28T04:50:17.139Z,6.73
2023-03-28T04:52:45.857Z,9.13
2023-03-28T04:55:16.205Z,7.43
2023-03-28T04:57:44.874Z,8.83
2023-03-28T05:00:16.942Z,7.33
2023-03-28T05:02:47.839Z,8.30
2023-03-28T05:05:16.908Z,6.50
2023-03-28T05:07:45.822Z,8.73
2023-03-28T05:10:14.458Z,6.20
2023-03-28T05:12:43.085Z,9.27
2023-03-28T05:15:21.352Z,7.70
2023-03-28T05:17:53.249Z,8.83
2023-03-28T05:20:22.395Z,7.27
2023-03-28T05:22:51.144Z,8.37
2023-03-28T05:25:21.968Z,7.80
2023-03-28T05:27:51.357Z,8.20
2023-03-28T05:30:20.802Z,6.00
2023-03-28T05:32:49.739Z,6.83
2023-03-28T05:35:19.959Z,8.40
2023-03-28T05:37:48.554Z,8.50
2023-03-28T05:40:17.225Z,8.93
2023-03-28T05:42:46.053Z,8.23
2023-03-28T05:45:14.699Z,6.03
2023-03-28T05:47:43.383Z,7.23
2023-03-28T05:50:12.421Z,7.77
2023-03-28T05:52:42.385Z,8.73
2023-03-28T05:55:11.311Z,10.23
2023-03-28T05:57:39.958Z,8.37
2023-03-28T06:00:12.067Z,11.00
2023-03-28T06:02:43.211Z,8.47
2023-03-28T06:05:12.107Z,10.97
2023-03-28T06:07:43.148Z,8.50
2023-03-28T06:10:13.230Z,11.07
2023-03-28T06:12:42.454Z,8.57
2023-03-28T06:15:12.654Z,10.00
2023-03-28T06:17:41.382Z,7.87
2023-03-28T06:20:10.886Z,11.30
2023-03-28T06:22:40.015Z,7.90
2023-03-28T06:25:11.103Z,10.20
2023-03-28T06:27:39.805Z,8.40
2023-03-28T06:30:09.674Z,11.70
2023-03-28T06:32:38.300Z,7.07
2023-03-28T06:35:07.934Z,11.37
2023-03-28T06:37:36.601Z,9.30
2023-03-28T06:40:05.951Z,8.27
2023-03-28T06:42:36.033Z,6.57
2023-03-28T06:45:05.982Z,10.30
2023-03-28T06:47:34.630Z,8.47
2023-03-28T06:50:03.306Z,10.37
2023-03-28T06:52:32.020Z,9.53
2023-03-28T06:55:00.713Z,10.47
2023-03-28T06:57:29.499Z,6.67
2023-03-28T06:59:59.521Z,8.70
2023-03-28T07:02:28.211Z,6.70
2023-03-28T07:04:56.844Z,6.40
2023-03-28T07:07:25.430Z,6.70
2023-03-28T07:09:54.725Z,9.30
2023-03-28T07:12:23.454Z,6.10
2023-03-28T07:14:52.012Z,7.13
2023-03-28T07:17:22.057Z,6.50
2023-03-28T07:19:51.304Z,6.40
2023-03-28T07:22:19.900Z,7.33
2023-03-28T07:24:48.521Z,6.03
2023-03-28T07:27:17.330Z,6.83
2023-03-28T07:29:46.068Z,7.60
2023-03-28T07:32:15.779Z,7.63
2023-03-28T07:34:45.880Z,7.67
2023-03-28T07:37:15.041Z,7.70
2023-03-28T07:39:43.920Z,8.33
2023-03-28T07:42:13.244Z,9.03
2023-03-28T07:44:42.486Z,7.17
2023-03-28T07:47:11.392Z,8.93
2023-03-28T07:49:41.140Z,6.47
2023-03-28T07:52:11.734Z,6.20
2023-03-28T07:54:40.597Z,5.93
2023-03-28T07:57:09.457Z,8.80
2023-03-28T07:59:38.136Z,6.70
2023-03-28T08:02:07.108Z,9.17
2023-03-28T08:04:35.791Z,6.80
2023-03-28T08:07:04.816Z,7.20
2023-03-28T08:09:34.897Z,5.60
2023-03-28T08:12:03.670Z,6.17
2023-03-28T08:14:32.610Z,5.80
2023-03-28T08:17:01.211Z,5.70
2023-03-28T08:19:29.848Z,5.40
2023-03-28T08:22:02.662Z,5.20
2023-03-28T08:24:36.192Z,5.93
2023-03-28T08:27:06.506Z,6.90
2023-03-28T08:29:35.177Z,5.37
2023-03-28T08:32:06.290Z,6.43
2023-03-28T08:34:35.150Z,6.57
2023-03-28T08:37:03.998Z,6.67
2023-03-28T08:39:33.626Z,6.37
2023-03-28T08:42:39.953Z,5.60
2023-03-28T08:45:31.400Z,8.57
2023-03-28T08:48:09.772Z,6.87
2023-03-28T08:50:44.079Z,7.13
2023-03-28T08:53:22.103Z,9.03
2023-03-28T08:55:53.431Z,7.00
2023-03-28T08:58:26.668Z,9.27
2023-03-28T09:00:55.410Z,6.50
2023-03-28T09:03:25.256Z,7.60
2023-03-28T09:06:00.830Z,6.77
2023-03-28T09:08:53.213Z,7.30
2023-03-28T09:11:33.380Z,9.50
2023-03-28T09:14:20.096Z,7.27
2023-03-28T09:16:59.687Z,7.90
2023-03-28T09:19:51.816Z,7.73
2023-03-28T09:22:29.534Z,10.37
2023-03-28T09:25:07.520Z,8.40
2023-03-28T09:27:38.674Z,7.03
2023-03-28T09:30:19.539Z,10.63
2023-03-28T09:32:49.654Z,7.83
2023-03-28T09:35:21.376Z,8.00
2023-03-28T09:37:52.965Z,9.07
2023-03-28T09:40:24.391Z,7.57
2023-03-28T09:43:00.844Z,8.03
2023-03-28T09:45:48.066Z,7.70
2023-03-28T09:48:23.968Z,9.23
2023-03-28T09:50:54.774Z,8.27
2023-03-28T09:53:26.207Z,10.97
2023-03-28T09:56:04.303Z,7.50
2023-03-28T09:58:50.161Z,8.30
2023-03-28T10:01:31.962Z,11.67
2023-03-28T10:04:01.743Z,8.93
2023-03-28T10:06:32.100Z,8.43
2023-03-28T10:09:16.264Z,9.00
2023-03-28T10:11:54.905Z,9.03
2023-03-28T10:14:34.384Z,10.90
2023-03-28T10:17:07.012Z,8.80
2023-03-28T10:19:38.613Z,9.07
2023-03-28T10:22:09.202Z,9.83
2023-03-28T10:24:39.704Z,9.33
2023-03-28T10:27:16.284Z,9.90
2023-03-28T10:29:46.104Z,9.53
2023-03-28T10:32:26.269Z,12.73
2023-03-28T10:35:03.103Z,9.07
2023-03-28T10:37:33.803Z,10.07
2023-03-28T10:40:07.099Z,8.83
2023-03-28T10:42:43.800Z,10.23
2023-03-28T10:45:21.950Z,13.43
2023-03-28T10:47:55.708Z,9.83
2023-03-28T10:50:29.986Z,11.43
2023-03-28T10:53:14.333Z,12.67
2023-03-28T10:55:54.924Z,10.63
2023-03-28T10:58:31.958Z,12.27
2023-03-28T11:01:06.021Z,14.23
2023-03-28T11:03:48.765Z,10.80
2023-03-28T11:06:23.009Z,10.50
2023-03-28T11:09:02.234Z,10.87
2023-03-28T11:11:47.231Z,11.03
2023-03-28T11:14:34.200Z,11.90
2023-03-28T11:17:11.598Z,13.33
2023-03-28T11:20:08.786Z,10.83
2023-03-28T11:22:55.481Z,11.00
2023-03-28T11:25:38.580Z,10.27
2023-03-28T11:28:16.673Z,12.90
2023-03-28T11:30:48.659Z,11.30
2023-03-28T11:33:22.198Z,12.87
2023-03-28T11:35:56.922Z,12.77
2023-03-28T11:38:28.975Z,10.40
2023-03-28T11:41:03.196Z,10.47
2023-03-28T11:43:38.320Z,11.70
2023-03-28T11:46:11.377Z,11.97
2023-03-28T11:48:45.432Z,11.37
2023-03-28T11:51:20.300Z,14.13
2023-03-28T11:53:54.738Z,12.43
2023-03-28T11:56:42.328Z,12.37
2023-03-28T11:59:15.783Z,12.37
2023-03-28T12:01:48.604Z,12.90
2023-03-28T12:04:22.344Z,14.97
2023-03-28T12:07:03.519Z,11.70
2023-03-28T12:09:37.253Z,12.17
2023-03-28T12:12:12.387Z,11.50
2023-03-28T12:14:50.846Z,12.53
2023-03-28T12:17:23.346Z,14.57
2023-03-28T12:19:53.950Z,10.67
2023-03-28T12:22:34.256Z,12.17
2023-03-28T12:25:09.132Z,12.43
2023-03-28T12:27:53.947Z,12.87
2023-03-28T12:30:30.007Z,14.37
2023-03-28T12:33:06.764Z,12.13
2023-03-28T12:35:42.936Z,12.47
2023-03-28T12:38:24.721Z,12.10
2023-03-28T12:41:00.209Z,12.43
2023-03-28T12:43:39.706Z,12.80
2023-03-28T12:46:09.626Z,11.67
2023-03-28T12:48:42.044Z,11.93
2023-03-28T12:51:16.463Z,13.27
2023-03-28T12:54:00.700Z,11.90
2023-03-28T12:56:29.559Z,13.03
2023-03-28T12:58:59.529Z,11.53
2023-03-28T13:01:45.406Z,12.63
2023-03-28T13:04:22.285Z,13.10
2023-03-28T13:06:59.619Z,13.03
2023-03-28T13:09:49.556Z,15.50
2023-03-28T13:12:29.398Z,16.37
2023-03-28T13:15:02.885Z,11.00
2023-03-28T13:17:34.284Z,11.13
2023-03-28T13:20:10.799Z,12.03
2023-03-28T13:22:44.290Z,11.80
2023-03-28T13:25:29.602Z,15.07
2023-03-28T13:28:00.738Z,11.33
2023-03-28T13:30:31.295Z,11.90
2023-03-28T13:33:02.234Z,11.47
2023-03-28T13:35:41.230Z,11.47
2023-03-28T13:38:24.834Z,15.37
2023-03-28T13:40:56.704Z,11.17
2023-03-28T13:43:27.549Z,11.20
2023-03-28T13:45:59.689Z,13.27
2023-03-28T13:48:34.543Z,14.70
2023-03-28T13:51:07.431Z,12.33
2023-03-28T13:53:47.055Z,13.10
2023-03-28T13:56:23.986Z,13.47
2023-03-28T13:58:55.361Z,12.40
2023-03-28T14:01:27.027Z,12.10
2023-03-28T14:03:56.886Z,10.90
2023-03-28T14:06:27.915Z,15.90
2023-03-28T14:09:01.888Z,12.87
2023-03-28T14:11:35.855Z,13.30
2023-03-28T14:14:09.632Z,12.30
2023-03-28T14:16:39.054Z,12.23
2023-03-28T14:19:10.048Z,12.97
2023-03-28T14:21:39.188Z,12.00
2023-03-28T14:24:09.789Z,11.83
2023-03-28T14:26:39.865Z,12.47
2023-03-28T14:29:12.983Z,12.83
2023-03-28T14:31:46.284Z,12.03
2023-03-28T14:34:18.459Z,12.77
2023-03-28T14:36:59.049Z,12.77
2023-03-28T14:39:30.747Z,14.37
2023-03-28T14:42:03.862Z,11.80
2023-03-28T14:44:37.115Z,13.03
2023-03-28T14:47:06.531Z,11.73
2023-03-28T14:49:35.979Z,12.07
2023-03-28T14:52:04.749Z,12.47
2023-03-28T14:54:36.867Z,11.00
2023-03-28T14:57:07.960Z,11.40
2023-03-28T14:59:40.916Z,12.90
2023-03-28T15:02:21.696Z,15.77
2023-03-28T15:04:51.318Z,12.27
2023-03-28T15:07:26.622Z,15.00
2023-03-28T15:10:10.295Z,11.07
2023-03-28T15:12:46.708Z,12.90
2023-03-28T15:15:18.372Z,12.77
2023-03-28T15:17:47.507Z,12.93
2023-03-28T15:20:19.268Z,13.37
2023-03-28T15:22:51.262Z,12.37
2023-03-28T15:25:21.834Z,14.17
2023-03-28T15:27:57.500Z,12.10
2023-03-28T15:30:27.698Z,14.80
2023-03-28T15:33:02.978Z,10.37
2023-03-28T15:35:33.881Z,13.93
2023-03-28T15:38:06.506Z,10.87
2023-03-28T15:40:41.823Z,11.83
2023-03-28T15:43:35.887Z,13.67
2023-03-28T15:46:09.306Z,12.60
2023-03-28T15:48:38.993Z,11.93
2023-03-28T15:51:09.569Z,14.47
2023-03-28T15:53:38.928Z,12.17
2023-03-28T15:56:10.003Z,12.47
2023-03-28T15:58:45.582Z,12.30
2023-03-28T16:01:28.495Z,12.10
2023-03-28T16:04:16.780Z,12.13
2023-03-28T16:06:46.461Z,13.43
2023-03-28T16:09:18.996Z,14.00
2023-03-28T16:11:50.548Z,13.13
2023-03-28T16:14:21.525Z,11.03
2023-03-28T16:16:55.072Z,13.13
2023-03-28T16:19:25.420Z,12.97
2023-03-28T16:21:54.145Z,11.77
2023-03-28T16:24:22.765Z,14.40
2023-03-28T16:26:51.500Z,14.00
2023-03-28T16:29:21.583Z,15.10
2023-03-28T16:31:50.430Z,12.40
2023-03-28T16:34:19.151Z,11.77
2023-03-28T16:36:47.980Z,12.80
2023-03-28T16:39:16.590Z,15.93
2023-03-28T16:41:45.257Z,12.50
2023-03-28T16:44:13.871Z,12.43
2023-03-28T16:46:43.874Z,13.33
2023-03-28T16:49:12.489Z,12.43
2023-03-28T16:51:41.108Z,11.10
2023-03-28T16:54:10.252Z,11.00
2023-03-28T16:56:39.282Z,10.87
2023-03-28T16:59:08.375Z,12.53
2023-03-28T17:01:37.314Z,12.80
2023-03-28T17:04:07.469Z,11.90
2023-03-28T17:06:36.152Z,13.57
2023-03-28T17:09:05.690Z,11.37
2023-03-28T17:11:34.834Z,13.07
2023-03-28T17:14:03.836Z,11.63
2023-03-28T17:16:32.768Z,13.93
2023-03-28T17:19:01.369Z,12.33
2023-03-28T17:21:31.457Z,13.60
2023-03-28T17:24:00.117Z,11.87
2023-03-28T17:26:28.761Z,13.60
2023-03-28T17:28:58.401Z,12.10
2023-03-28T17:31:27.813Z,12.27
2023-03-28T17:33:56.785Z,11.30
2023-03-28T17:36:28.225Z,13.00
2023-03-28T17:38:59.665Z,11.17
2023-03-28T17:41:28.849Z,13.33
2023-03-28T17:43:58.411Z,11.20
2023-03-28T17:46:28.750Z,14.53
2023-03-28T17:48:57.388Z,11.00
2023-03-28T17:51:26.024Z,13.77
2023-03-28T17:53:54.687Z,11.97
2023-03-28T17:56:24.688Z,12.13
2023-03-28T17:58:53.301Z,13.70
2023-03-28T18:01:22.479Z,15.13
2023-03-28T18:03:51.224Z,11.90
2023-03-28T18:06:19.873Z,12.53
2023-03-28T18:08:48.537Z,10.70
2023-03-28T18:11:18.839Z,12.47
2023-03-28T18:13:48.802Z,11.97
2023-03-28T18:16:18.497Z,10.67
2023-03-28T18:18:47.334Z,10.60
2023-03-28T18:21:16.520Z,11.30
2023-03-28T18:23:45.185Z,9.27
2023-03-28T18:26:13.781Z,11.80
2023-03-28T18:28:42.409Z,9.30
2023-03-28T18:31:14.470Z,9.97
2023-03-28T18:33:43.523Z,9.93
2023-03-28T18:36:12.814Z,10.90
2023-03-28T18:38:43.195Z,10.40
2023-03-28T18:41:13.043Z,10.40
2023-03-28T18:43:42.741Z,10.50
2023-03-28T18:46:15.929Z,9.30
2023-03-28T18:48:45.448Z,9.43
2023-03-28T18:51:14.309Z,10.40
2023-03-28T18:53:43.401Z,9.77
2023-03-28T18:56:13.565Z,9.40
2023-03-28T18:58:42.371Z,11.03
2023-03-28T19:01:12.795Z,9.70
2023-03-28T19:03:42.827Z,9.43
2023-03-28T19:06:13.338Z,10.23
2023-03-28T19:08:42.439Z,9.80
2023-03-28T19:11:13.296Z,10.10
2023-03-28T19:13:42.626Z,9.47
2023-03-28T19:16:14.467Z,8.60
2023-03-28T19:18:45.314Z,8.90
2023-03-28T19:21:14.888Z,8.57
2023-03-28T19:23:43.960Z,10.50
2023-03-28T19:26:13.939Z,10.30
2023-03-28T19:28:43.085Z,9.23
2023-03-28T19:31:14.554Z,10.40
2023-03-28T19:33:44.823Z,10.13
2023-03-28T19:36:13.508Z,9.00
2023-03-28T19:38:42.427Z,10.70
2023-03-28T19:41:18.102Z,9.30
2023-03-28T19:43:48.013Z,9.77
2023-03-28T19:46:23.030Z,8.60
2023-03-28T19:48:54.748Z,9.00
2023-03-28T19:51:23.860Z,11.30
2023-03-28T19:53:52.579Z,9.87
2023-03-28T19:56:23.090Z,8.70
2023-03-28T19:58:52.173Z,8.10
2023-03-28T20:01:22.256Z,9.33
2023-03-28T20:03:53.222Z,9.73
2023-03-28T20:06:24.007Z,9.87
2023-03-28T20:08:52.857Z,8.20
2023-03-28T20:11:22.129Z,9.40
2023-03-28T20:13:50.913Z,8.70
2023-03-28T20:16:21.194Z,10.27
2023-03-28T20:18:49.785Z,8.87
2023-03-28T20:21:19.646Z,11.40
2023-03-28T20:23:48.205Z,8.13
2023-03-28T20:26:19.256Z,8.97
2023-03-28T20:28:49.889Z,9.60
2023-03-28T20:31:19.936Z,12.90
2023-03-28T20:33:50.040Z,10.67
2023-03-28T20:36:18.623Z,11.77
2023-03-28T20:38:47.627Z,7.90
2023-03-28T20:41:18.340Z,8.73
2023-03-28T20:43:48.108Z,8.83
2023-03-28T20:46:19.643Z,8.70
2023-03-28T20:48:53.260Z,8.13
2023-03-28T20:51:23.591Z,9.87
2023-03-28T20:53:55.460Z,7.70
2023-03-28T20:56:24.862Z,9.37
2023-03-28T20:58:53.810Z,7.90
2023-03-28T21:01:26.385Z,8.20
2023-03-28T21:04:02.201Z,8.17
2023-03-28T21:06:34.889Z,9.23
2023-03-28T21:09:05.664Z,7.67
2023-03-28T21:11:35.714Z,10.80
2023-03-28T21:14:04.834Z,8.07
2023-03-28T21:16:34.662Z,9.87
2023-03-28T21:19:05.146Z,7.50
2023-03-28T21:21:34.264Z,11.37
2023-03-28T21:24:04.636Z,7.97
2023-03-28T21:26:33.617Z,10.03
2023-03-28T21:29:02.854Z,7.73
2023-03-28T21:31:32.079Z,9.33
2023-03-28T21:34:01.046Z,7.27
2023-03-28T21:36:31.124Z,9.43
2023-03-28T21:38:59.743Z,7.43
2023-03-28T21:41:28.404Z,10.47
2023-03-28T21:43:57.243Z,8.70
2023-03-28T21:46:26.137Z,9.30
2023-03-28T21:48:55.239Z,8.07
2023-03-28T21:51:23.818Z,8.90
2023-03-28T21:53:53.791Z,9.50
2023-03-28T21:56:23.078Z,8.30
2023-03-28T21:58:51.690Z,7.43
2023-03-28T22:01:20.856Z,7.33
2023-03-28T22:03:49.770Z,10.20
2023-03-28T22:06:19.221Z,7.97
2023-03-28T22:08:52.007Z,7.70
2023-03-28T22:11:27.621Z,7.87
2023-03-28T22:14:01.554Z,9.00
2023-03-28T22:16:32.476Z,9.90
2023-03-28T22:19:01.654Z,7.13
2023-03-28T22:21:31.524Z,9.13
2023-03-28T22:24:02.947Z,7.63
2023-03-28T22:26:32.957Z,10.47
2023-03-28T22:29:01.957Z,8.07
2023-03-28T22:31:30.716Z,8.80
2023-03-28T22:33:59.606Z,8.57
2023-03-28T22:36:28.270Z,8.57
2023-03-28T22:38:57.089Z,7.37
2023-03-28T22:41:25.904Z,9.33
2023-03-28T22:43:55.882Z,7.97
2023-03-28T22:46:26.063Z,7.30
2023-03-28T22:48:58.539Z,9.07
2023-03-28T22:51:28.097Z,9.13
2023-03-28T22:54:00.339Z,7.63
2023-03-28T22:56:29.247Z,10.47
2023-03-28T22:59:01.264Z,7.83
2023-03-28T23:01:30.541Z,8.53
2023-03-28T23:03:59.250Z,7.23
2023-03-28T23:06:28.656Z,7.40
2023-03-28T23:08:58.693Z,8.33
2023-03-28T23:11:27.574Z,8.50
2023-03-28T23:14:02.733Z,7.50
2023-03-28T23:16:32.957Z,9.77
2023-03-28T23:19:02.753Z,7.60
2023-03-28T23:21:32.293Z,9.07
2023-03-28T23:24:01.101Z,7.87
2023-03-28T23:26:29.748Z,9.37
2023-03-28T23:28:58.434Z,8.17
2023-03-28T23:31:27.122Z,8.03
2023-03-28T23:33:57.103Z,7.77
2023-03-28T23:36:26.138Z,8.30
2023-03-28T23:38:54.778Z,8.83
2023-03-28T23:41:23.662Z,6.77
2023-03-28T23:43:52.237Z,7.93
2023-03-28T23:46:21.308Z,8.30
2023-03-28T23:48:49.951Z,9.03
2023-03-28T23:51:19.950Z,10.30
2023-03-28T23:53:48.588Z,8.03
2023-03-28T23:56:17.165Z,8.17
2023-03-28T23:58:45.733Z,9.40
